LZB441 LDDU-LBPD
Flight info
| Callsign | LZB441 |
|---|---|
| Flight time | 0h 49m |
| Altitude | 37000 |
| Route | MOKUN L187 TIBRI DCT RUMEN |
| Aircraft | A319/M-SDE3FGHIRWY/LB1 |
Departure
| Time | 2026-05-08 16:33 |
|---|---|
| Airport | Dubrovnik Ruđer Bošković Airport (LDDU) |
Arrival
| Time | 2026-05-08 17:23 |
|---|---|
| Airport | Plovdiv International Airport (LBPD) |
| Time | Latitude | Longitude | Altitude | Speed | Heading |
|---|---|---|---|---|---|
| 2026-05-08 16:05 | 42.56091 | 18.26303 | 534 ft | 0 kts | 208° |
| 2026-05-08 16:20 | 42.56110 | 18.26315 | 534 ft | 4 kts | 198° |
| 2026-05-08 16:20 | 42.56136 | 18.26321 | 534 ft | 4 kts | 168° |
| 2026-05-08 16:21 | 42.56154 | 18.26308 | 534 ft | 1 kts | 118° |
| 2026-05-08 16:21 | 42.56155 | 18.26307 | 534 ft | 0 kts | 118° |
| 2026-05-08 16:24 | 42.56154 | 18.26309 | 534 ft | 1 kts | 118° |
| 2026-05-08 16:24 | 42.56145 | 18.26331 | 534 ft | 4 kts | 118° |
| 2026-05-08 16:24 | 42.56128 | 18.26374 | 534 ft | 6 kts | 118° |
| 2026-05-08 16:24 | 42.56104 | 18.26436 | 534 ft | 8 kts | 118° |
| 2026-05-08 16:25 | 42.56074 | 18.26513 | 534 ft | 10 kts | 118° |
| 2026-05-08 16:25 | 42.56038 | 18.26602 | 534 ft | 11 kts | 118° |
| 2026-05-08 16:25 | 42.55999 | 18.26700 | 534 ft | 12 kts | 118° |
| 2026-05-08 16:25 | 42.55956 | 18.26805 | 534 ft | 13 kts | 118° |
| 2026-05-08 16:26 | 42.55911 | 18.26920 | 534 ft | 14 kts | 118° |
| 2026-05-08 16:26 | 42.55861 | 18.27045 | 534 ft | 15 kts | 118° |
| 2026-05-08 16:26 | 42.55809 | 18.27179 | 534 ft | 17 kts | 118° |
| 2026-05-08 16:26 | 42.55752 | 18.27324 | 534 ft | 18 kts | 118° |
| 2026-05-08 16:27 | 42.55689 | 18.27481 | 534 ft | 20 kts | 118° |
| 2026-05-08 16:27 | 42.55622 | 18.27649 | 534 ft | 21 kts | 118° |
| 2026-05-08 16:27 | 42.55550 | 18.27829 | 534 ft | 22 kts | 118° |
| 2026-05-08 16:27 | 42.55477 | 18.28011 | 534 ft | 17 kts | 118° |
| 2026-05-08 16:28 | 42.55487 | 18.28132 | 534 ft | 12 kts | 37° |
| 2026-05-08 16:28 | 42.55500 | 18.28142 | 534 ft | 0 kts | 28° |
| 2026-05-08 16:31 | 42.55503 | 18.28144 | 534 ft | 1 kts | 28° |
| 2026-05-08 16:31 | 42.55517 | 18.28154 | 534 ft | 3 kts | 28° |
| 2026-05-08 16:31 | 42.55545 | 18.28174 | 533 ft | 6 kts | 28° |
| 2026-05-08 16:31 | 42.55592 | 18.28179 | 533 ft | 8 kts | 335° |
| 2026-05-08 16:32 | 42.55622 | 18.28127 | 533 ft | 0 kts | 297° |
| 2026-05-08 16:32 | 42.55625 | 18.28119 | 533 ft | 2 kts | 297° |
| 2026-05-08 16:32 | 42.55645 | 18.28066 | 532 ft | 20 kts | 298° |
| 2026-05-08 16:32 | 42.55806 | 18.27660 | 531 ft | 77 kts | 298° |
| 2026-05-08 16:33 | 42.56145 | 18.26805 | 534 ft | 128 kts | 298° |
| 2026-05-08 16:33 | 42.56633 | 18.25592 | 744 ft | 154 kts | 298° |
| 2026-05-08 16:33 | 42.57147 | 18.24314 | 1323 ft | 156 kts | 298° |
| 2026-05-08 16:33 | 42.57662 | 18.23005 | 1939 ft | 163 kts | 300° |
| 2026-05-08 16:34 | 42.58235 | 18.21555 | 2265 ft | 186 kts | 300° |
| 2026-05-08 16:34 | 42.58808 | 18.19838 | 2590 ft | 215 kts | 284° |
| 2026-05-08 16:34 | 42.58706 | 18.17687 | 3032 ft | 247 kts | 253° |
| 2026-05-08 16:34 | 42.57696 | 18.15690 | 3646 ft | 270 kts | 220° |
| 2026-05-08 16:35 | 42.55955 | 18.14714 | 4553 ft | 278 kts | 183° |
| 2026-05-08 16:35 | 42.54098 | 18.15218 | 5544 ft | 274 kts | 147° |
| 2026-05-08 16:35 | 42.52792 | 18.17011 | 6548 ft | 268 kts | 114° |
| 2026-05-08 16:35 | 42.52141 | 18.19371 | 7510 ft | 268 kts | 106° |
| 2026-05-08 16:36 | 42.51553 | 18.21776 | 8452 ft | 270 kts | 106° |
| 2026-05-08 16:36 | 42.50962 | 18.24208 | 9368 ft | 273 kts | 107° |
| 2026-05-08 16:36 | 42.50353 | 18.26699 | 10208 ft | 279 kts | 107° |
| 2026-05-08 16:36 | 42.49713 | 18.29300 | 10500 ft | 303 kts | 107° |
| 2026-05-08 16:37 | 42.49018 | 18.32106 | 10786 ft | 324 kts | 108° |
| 2026-05-08 16:37 | 42.48286 | 18.35036 | 11379 ft | 332 kts | 108° |
| 2026-05-08 16:37 | 42.47535 | 18.38023 | 12076 ft | 338 kts | 108° |
| 2026-05-08 16:37 | 42.46770 | 18.41059 | 12749 ft | 344 kts | 108° |
| 2026-05-08 16:38 | 42.45991 | 18.44151 | 13372 ft | 351 kts | 109° |
| 2026-05-08 16:38 | 42.45128 | 18.47277 | 13947 ft | 358 kts | 116° |
| 2026-05-08 16:38 | 42.43855 | 18.50196 | 14506 ft | 362 kts | 127° |
| 2026-05-08 16:38 | 42.42462 | 18.53058 | 15112 ft | 367 kts | 118° |
| 2026-05-08 16:39 | 42.41522 | 18.56278 | 15716 ft | 372 kts | 105° |
| 2026-05-08 16:39 | 42.41106 | 18.59746 | 16332 ft | 376 kts | 93° |
| 2026-05-08 16:39 | 42.41112 | 18.63297 | 16971 ft | 379 kts | 89° |
| 2026-05-08 16:39 | 42.41144 | 18.66880 | 17573 ft | 383 kts | 89° |
| 2026-05-08 16:40 | 42.41167 | 18.70492 | 18182 ft | 386 kts | 89° |
| 2026-05-08 16:40 | 42.41185 | 18.74144 | 18722 ft | 390 kts | 90° |
| 2026-05-08 16:40 | 42.41198 | 18.77835 | 19226 ft | 395 kts | 90° |
| 2026-05-08 16:40 | 42.41210 | 18.81580 | 19711 ft | 400 kts | 90° |
| 2026-05-08 16:41 | 42.41222 | 18.85365 | 20232 ft | 404 kts | 90° |
| 2026-05-08 16:41 | 42.41236 | 18.89177 | 20736 ft | 408 kts | 90° |
| 2026-05-08 16:41 | 42.41249 | 18.93038 | 21252 ft | 412 kts | 90° |
| 2026-05-08 16:42 | 42.41273 | 19.00859 | 22247 ft | 419 kts | 90° |
| 2026-05-08 16:42 | 42.41283 | 19.04822 | 22713 ft | 423 kts | 90° |
| 2026-05-08 16:42 | 42.41290 | 19.08823 | 23182 ft | 427 kts | 90° |
| 2026-05-08 16:42 | 42.41295 | 19.12855 | 23643 ft | 430 kts | 90° |
| 2026-05-08 16:43 | 42.41301 | 19.16913 | 24035 ft | 433 kts | 90° |
| 2026-05-08 16:43 | 42.41308 | 19.21050 | 24444 ft | 435 kts | 90° |
| 2026-05-08 16:43 | 42.41315 | 19.25156 | 24847 ft | 437 kts | 90° |
| 2026-05-08 16:43 | 42.41319 | 19.29282 | 25247 ft | 439 kts | 90° |
| 2026-05-08 16:44 | 42.41319 | 19.33419 | 25647 ft | 441 kts | 90° |
| 2026-05-08 16:44 | 42.41315 | 19.37579 | 26050 ft | 444 kts | 90° |
| 2026-05-08 16:44 | 42.41311 | 19.41765 | 26459 ft | 446 kts | 90° |
| 2026-05-08 16:44 | 42.41307 | 19.45969 | 26858 ft | 448 kts | 90° |
| 2026-05-08 16:45 | 42.41303 | 19.50195 | 27238 ft | 450 kts | 91° |
| 2026-05-08 16:45 | 42.41297 | 19.54444 | 27632 ft | 453 kts | 91° |
| 2026-05-08 16:45 | 42.41290 | 19.58721 | 28011 ft | 455 kts | 91° |
| 2026-05-08 16:45 | 42.41280 | 19.63018 | 28389 ft | 458 kts | 91° |
| 2026-05-08 16:46 | 42.41266 | 19.67327 | 28775 ft | 460 kts | 91° |
| 2026-05-08 16:46 | 42.41251 | 19.71666 | 29149 ft | 462 kts | 91° |
| 2026-05-08 16:46 | 42.41236 | 19.76027 | 29516 ft | 464 kts | 91° |
| 2026-05-08 16:46 | 42.41221 | 19.80405 | 29871 ft | 466 kts | 91° |
| 2026-05-08 16:47 | 42.41205 | 19.84798 | 30151 ft | 470 kts | 91° |
| 2026-05-08 16:47 | 42.41184 | 19.89240 | 30417 ft | 472 kts | 91° |
| 2026-05-08 16:47 | 42.41158 | 19.93681 | 30702 ft | 474 kts | 91° |
| 2026-05-08 16:47 | 42.41129 | 19.98141 | 30988 ft | 475 kts | 91° |
| 2026-05-08 16:48 | 42.41102 | 20.02611 | 31282 ft | 475 kts | 91° |
| 2026-05-08 16:48 | 42.41075 | 20.07073 | 31685 ft | 473 kts | 91° |
| 2026-05-08 16:48 | 42.41047 | 20.11517 | 32074 ft | 471 kts | 91° |
| 2026-05-08 16:48 | 42.41017 | 20.15943 | 32515 ft | 469 kts | 91° |
| 2026-05-08 16:49 | 42.40985 | 20.20347 | 32972 ft | 467 kts | 91° |
| 2026-05-08 16:49 | 42.40950 | 20.24721 | 33423 ft | 465 kts | 91° |
| 2026-05-08 16:49 | 42.40915 | 20.29098 | 33862 ft | 463 kts | 91° |
| 2026-05-08 16:49 | 42.40878 | 20.33440 | 34259 ft | 462 kts | 91° |
| 2026-05-08 16:50 | 42.40838 | 20.37785 | 34589 ft | 462 kts | 91° |
| 2026-05-08 16:50 | 42.40799 | 20.42133 | 34884 ft | 462 kts | 91° |
| 2026-05-08 16:50 | 42.40757 | 20.46539 | 35172 ft | 463 kts | 91° |
| 2026-05-08 16:50 | 42.40713 | 20.50904 | 35442 ft | 464 kts | 91° |
| 2026-05-08 16:51 | 42.40666 | 20.55281 | 35699 ft | 466 kts | 91° |
| 2026-05-08 16:51 | 42.40617 | 20.59658 | 35959 ft | 467 kts | 91° |
| 2026-05-08 16:51 | 42.40565 | 20.64058 | 36226 ft | 467 kts | 91° |
| 2026-05-08 16:51 | 42.40512 | 20.68451 | 36479 ft | 468 kts | 91° |
| 2026-05-08 16:52 | 42.40460 | 20.72866 | 36736 ft | 469 kts | 91° |
| 2026-05-08 16:52 | 42.40409 | 20.77280 | 36974 ft | 470 kts | 91° |
| 2026-05-08 16:52 | 42.40355 | 20.81700 | 37052 ft | 470 kts | 91° |
| 2026-05-08 16:53 | 42.40179 | 20.94934 | 37053 ft | 469 kts | 92° |
| 2026-05-08 16:53 | 42.40050 | 21.03744 | 37051 ft | 469 kts | 92° |
| 2026-05-08 16:54 | 42.39914 | 21.12560 | 37059 ft | 469 kts | 92° |
| 2026-05-08 16:54 | 42.39772 | 21.21373 | 37057 ft | 468 kts | 92° |
| 2026-05-08 16:55 | 42.39649 | 21.28744 | 37048 ft | 468 kts | 92° |
| 2026-05-08 16:55 | 42.39493 | 21.37547 | 37061 ft | 468 kts | 92° |
| 2026-05-08 16:56 | 42.39336 | 21.46346 | 37056 ft | 468 kts | 92° |
| 2026-05-08 16:56 | 42.39169 | 21.55142 | 37042 ft | 468 kts | 92° |
| 2026-05-08 16:57 | 42.38996 | 21.63932 | 37045 ft | 467 kts | 92° |
| 2026-05-08 16:57 | 42.38817 | 21.72723 | 37035 ft | 467 kts | 92° |
| 2026-05-08 16:58 | 42.38634 | 21.81512 | 37038 ft | 467 kts | 92° |
| 2026-05-08 16:58 | 42.38437 | 21.90290 | 37041 ft | 467 kts | 92° |
| 2026-05-08 16:59 | 42.38233 | 21.99055 | 37054 ft | 466 kts | 92° |
| 2026-05-08 16:59 | 42.38030 | 22.07803 | 37057 ft | 466 kts | 92° |
| 2026-05-08 17:00 | 42.37818 | 22.16558 | 37057 ft | 465 kts | 92° |
| 2026-05-08 17:00 | 42.37595 | 22.25297 | 37062 ft | 465 kts | 92° |
| 2026-05-08 17:01 | 42.37366 | 22.34094 | 37064 ft | 465 kts | 92° |
| 2026-05-08 17:01 | 42.37252 | 22.38456 | 36660 ft | 466 kts | 92° |
| 2026-05-08 17:01 | 42.37137 | 22.42860 | 35875 ft | 471 kts | 92° |
| 2026-05-08 17:02 | 42.37017 | 22.47301 | 35100 ft | 474 kts | 92° |
| 2026-05-08 17:02 | 42.36897 | 22.51727 | 34405 ft | 467 kts | 93° |
| 2026-05-08 17:02 | 42.36776 | 22.56100 | 33279 ft | 465 kts | 93° |
| 2026-05-08 17:02 | 42.36653 | 22.60451 | 32314 ft | 460 kts | 92° |
| 2026-05-08 17:03 | 42.36529 | 22.64790 | 31358 ft | 465 kts | 92° |
| 2026-05-08 17:03 | 42.36402 | 22.69148 | 30865 ft | 460 kts | 92° |
| 2026-05-08 17:03 | 42.36277 | 22.73448 | 30301 ft | 457 kts | 92° |
| 2026-05-08 17:03 | 42.36150 | 22.77731 | 29661 ft | 455 kts | 92° |
| 2026-05-08 17:04 | 42.36022 | 22.81977 | 29090 ft | 450 kts | 92° |
| 2026-05-08 17:04 | 42.35977 | 22.83432 | 28891 ft | 449 kts | 92° |
| 2026-05-08 17:04 | 42.35886 | 22.86308 | 28501 ft | 446 kts | 92° |
| 2026-05-08 17:04 | 42.35754 | 22.90478 | 27935 ft | 442 kts | 92° |
| 2026-05-08 17:05 | 42.35626 | 22.94611 | 27375 ft | 438 kts | 92° |
| 2026-05-08 17:05 | 42.35498 | 22.98702 | 26819 ft | 435 kts | 92° |
| 2026-05-08 17:05 | 42.35367 | 23.02770 | 26265 ft | 432 kts | 92° |
| 2026-05-08 17:05 | 42.35234 | 23.06812 | 25724 ft | 429 kts | 92° |
| 2026-05-08 17:06 | 42.35100 | 23.10823 | 25199 ft | 425 kts | 92° |
| 2026-05-08 17:06 | 42.34964 | 23.14805 | 24682 ft | 423 kts | 92° |
| 2026-05-08 17:06 | 42.34833 | 23.18767 | 24180 ft | 420 kts | 92° |
| 2026-05-08 17:06 | 42.34705 | 23.22706 | 23687 ft | 418 kts | 92° |
| 2026-05-08 17:07 | 42.34575 | 23.26616 | 23150 ft | 416 kts | 92° |
| 2026-05-08 17:07 | 42.34442 | 23.30500 | 22680 ft | 412 kts | 92° |
| 2026-05-08 17:07 | 42.34307 | 23.34352 | 22202 ft | 409 kts | 92° |
| 2026-05-08 17:07 | 42.34171 | 23.38177 | 21724 ft | 406 kts | 93° |
| 2026-05-08 17:08 | 42.34034 | 23.42013 | 21244 ft | 403 kts | 93° |
| 2026-05-08 17:08 | 42.33898 | 23.45733 | 20764 ft | 400 kts | 94° |
| 2026-05-08 17:08 | 42.33758 | 23.49516 | 20272 ft | 397 kts | 94° |
| 2026-05-08 17:08 | 42.33620 | 23.53236 | 19767 ft | 395 kts | 94° |
| 2026-05-08 17:09 | 42.33484 | 23.56935 | 19262 ft | 393 kts | 94° |
| 2026-05-08 17:09 | 42.33348 | 23.60618 | 18744 ft | 391 kts | 94° |
| 2026-05-08 17:09 | 42.33211 | 23.64277 | 18210 ft | 390 kts | 94° |
| 2026-05-08 17:09 | 42.33076 | 23.67924 | 17654 ft | 387 kts | 94° |
| 2026-05-08 17:10 | 42.32942 | 23.71532 | 17132 ft | 383 kts | 94° |
| 2026-05-08 17:10 | 42.32807 | 23.75122 | 16606 ft | 380 kts | 94° |
| 2026-05-08 17:10 | 42.32670 | 23.78667 | 16098 ft | 377 kts | 94° |
| 2026-05-08 17:10 | 42.32532 | 23.82191 | 15582 ft | 374 kts | 94° |
| 2026-05-08 17:11 | 42.32394 | 23.85689 | 15068 ft | 372 kts | 94° |
| 2026-05-08 17:11 | 42.32258 | 23.89170 | 14538 ft | 370 kts | 94° |
| 2026-05-08 17:11 | 42.32121 | 23.92634 | 14036 ft | 368 kts | 94° |
| 2026-05-08 17:11 | 42.31983 | 23.96080 | 13488 ft | 366 kts | 94° |
| 2026-05-08 17:12 | 42.31844 | 23.99495 | 12971 ft | 362 kts | 94° |
| 2026-05-08 17:12 | 42.31706 | 24.02868 | 12473 ft | 357 kts | 94° |
| 2026-05-08 17:12 | 42.31568 | 24.06202 | 11974 ft | 353 kts | 94° |
| 2026-05-08 17:12 | 42.31434 | 24.09498 | 11480 ft | 349 kts | 94° |
| 2026-05-08 17:13 | 42.31300 | 24.12751 | 10996 ft | 346 kts | 94° |
| 2026-05-08 17:13 | 42.31164 | 24.15977 | 10519 ft | 342 kts | 94° |
| 2026-05-08 17:13 | 42.31029 | 24.19127 | 10362 ft | 329 kts | 94° |
| 2026-05-08 17:13 | 42.30898 | 24.22148 | 10240 ft | 316 kts | 94° |
| 2026-05-08 17:14 | 42.30772 | 24.25054 | 10118 ft | 305 kts | 94° |
| 2026-05-08 17:14 | 42.30650 | 24.27880 | 9870 ft | 299 kts | 94° |
| 2026-05-08 17:14 | 42.30469 | 24.30663 | 9506 ft | 296 kts | 101° |
| 2026-05-08 17:14 | 42.29891 | 24.33315 | 9115 ft | 293 kts | 114° |
| 2026-05-08 17:15 | 42.29103 | 24.35846 | 8729 ft | 293 kts | 114° |
| 2026-05-08 17:15 | 42.28324 | 24.38368 | 8346 ft | 289 kts | 114° |
| 2026-05-08 17:15 | 42.27560 | 24.40853 | 7959 ft | 285 kts | 114° |
| 2026-05-08 17:15 | 42.26806 | 24.43310 | 7582 ft | 281 kts | 114° |
| 2026-05-08 17:16 | 42.26062 | 24.45738 | 7210 ft | 278 kts | 114° |
| 2026-05-08 17:16 | 42.25325 | 24.48137 | 6843 ft | 275 kts | 114° |
| 2026-05-08 17:16 | 42.24585 | 24.50535 | 6473 ft | 272 kts | 114° |
| 2026-05-08 17:16 | 42.23863 | 24.52872 | 6099 ft | 266 kts | 114° |
| 2026-05-08 17:17 | 42.23161 | 24.55135 | 5748 ft | 258 kts | 114° |
| 2026-05-08 17:17 | 42.22418 | 24.57289 | 5409 ft | 248 kts | 124° |
| 2026-05-08 17:17 | 42.21412 | 24.59127 | 5085 ft | 240 kts | 128° |
| 2026-05-08 17:17 | 42.20420 | 24.60889 | 4772 ft | 232 kts | 128° |
| 2026-05-08 17:18 | 42.19464 | 24.62589 | 4464 ft | 222 kts | 128° |
| 2026-05-08 17:18 | 42.18551 | 24.64213 | 4162 ft | 212 kts | 128° |
| 2026-05-08 17:18 | 42.17680 | 24.65764 | 3904 ft | 202 kts | 128° |
| 2026-05-08 17:18 | 42.16846 | 24.67250 | 3623 ft | 197 kts | 127° |
| 2026-05-08 17:19 | 42.16037 | 24.68689 | 3349 ft | 187 kts | 127° |
| 2026-05-08 17:19 | 42.15273 | 24.70044 | 3104 ft | 176 kts | 127° |
| 2026-05-08 17:19 | 42.14555 | 24.71317 | 2861 ft | 165 kts | 127° |
| 2026-05-08 17:19 | 42.13878 | 24.72516 | 2644 ft | 156 kts | 128° |
| 2026-05-08 17:20 | 42.13229 | 24.73667 | 2443 ft | 153 kts | 128° |
| 2026-05-08 17:20 | 42.12595 | 24.74793 | 2246 ft | 147 kts | 128° |
| 2026-05-08 17:20 | 42.11980 | 24.75882 | 2054 ft | 145 kts | 129° |
| 2026-05-08 17:20 | 42.11373 | 24.76954 | 1864 ft | 142 kts | 127° |
| 2026-05-08 17:21 | 42.10777 | 24.78007 | 1686 ft | 140 kts | 127° |
| 2026-05-08 17:21 | 42.10182 | 24.79059 | 1496 ft | 139 kts | 127° |
| 2026-05-08 17:21 | 42.09602 | 24.80086 | 1312 ft | 137 kts | 127° |
| 2026-05-08 17:21 | 42.09028 | 24.81101 | 1118 ft | 136 kts | 127° |
| 2026-05-08 17:22 | 42.08461 | 24.82106 | 941 ft | 134 kts | 127° |
| 2026-05-08 17:22 | 42.07903 | 24.83112 | 744 ft | 133 kts | 127° |
| 2026-05-08 17:22 | 42.07348 | 24.84093 | 600 ft | 131 kts | 127° |
| 2026-05-08 17:22 | 42.06866 | 24.84943 | 581 ft | 94 kts | 127° |
| 2026-05-08 17:23 | 42.06606 | 24.85402 | 582 ft | 26 kts | 127° |
| 2026-05-08 17:23 | 42.06560 | 24.85570 | 583 ft | 10 kts | 84° |
| 2026-05-08 17:23 | 42.06571 | 24.85649 | 581 ft | 9 kts | 79° |
| 2026-05-08 17:23 | 42.06607 | 24.85719 | 581 ft | 10 kts | 15° |
| 2026-05-08 17:24 | 42.06663 | 24.85674 | 581 ft | 10 kts | 306° |
| 2026-05-08 17:24 | 42.06708 | 24.85594 | 581 ft | 11 kts | 307° |
| 2026-05-08 17:24 | 42.06758 | 24.85505 | 581 ft | 12 kts | 307° |
| 2026-05-08 17:24 | 42.06813 | 24.85409 | 581 ft | 14 kts | 308° |
| 2026-05-08 17:25 | 42.06874 | 24.85302 | 581 ft | 16 kts | 308° |
| 2026-05-08 17:25 | 42.06946 | 24.85175 | 581 ft | 19 kts | 307° |
| 2026-05-08 17:25 | 42.07034 | 24.85019 | 581 ft | 23 kts | 308° |
| 2026-05-08 17:25 | 42.07139 | 24.84837 | 581 ft | 23 kts | 307° |
| 2026-05-08 17:26 | 42.07226 | 24.84681 | 581 ft | 14 kts | 307° |
| 2026-05-08 17:26 | 42.07280 | 24.84629 | 581 ft | 16 kts | 348° |
| 2026-05-08 17:26 | 42.07390 | 24.84563 | 581 ft | 20 kts | 310° |
| 2026-05-08 17:26 | 42.07474 | 24.84416 | 581 ft | 17 kts | 308° |
| 2026-05-08 17:27 | 42.07549 | 24.84285 | 581 ft | 18 kts | 307° |
| 2026-05-08 17:27 | 42.07599 | 24.84265 | 581 ft | 7 kts | 37° |
| 2026-05-08 17:27 | 42.07634 | 24.84303 | 581 ft | 1 kts | 39° |
| 2026-05-08 17:27 | 42.07640 | 24.84310 | 581 ft | 0 kts | 39° |